createdAt,value
2022-07-31T00:00:21.213Z,22.30
2022-07-31T00:02:49.012Z,22.27
2022-07-31T00:05:16.711Z,22.42
2022-07-31T00:07:44.471Z,22.50
2022-07-31T00:10:13.555Z,22.28
2022-07-31T00:12:41.348Z,22.25
2022-07-31T00:15:10.997Z,22.26
2022-07-31T00:17:39.452Z,22.22
2022-07-31T00:20:08.674Z,22.43
2022-07-31T00:22:36.490Z,22.69
2022-07-31T00:25:04.638Z,22.73
2022-07-31T00:27:34.293Z,22.69
2022-07-31T00:30:01.954Z,22.61
2022-07-31T00:32:29.667Z,22.55
2022-07-31T00:34:57.532Z,22.53
2022-07-31T00:37:25.357Z,22.57
2022-07-31T00:39:54.358Z,22.58
2022-07-31T00:42:23.636Z,22.55
2022-07-31T00:44:53.628Z,22.54
2022-07-31T00:47:23.793Z,22.46
2022-07-31T00:49:53.418Z,22.38
2022-07-31T00:52:21.484Z,22.32
2022-07-31T00:54:49.190Z,22.27
2022-07-31T00:57:16.927Z,22.35
2022-07-31T00:59:45.110Z,22.30
2022-07-31T01:02:14.565Z,22.23
2022-07-31T01:04:44.592Z,22.09
2022-07-31T01:07:13.655Z,21.99
2022-07-31T01:09:41.511Z,22.18
2022-07-31T01:12:16.413Z,22.19
2022-07-31T01:14:48.837Z,22.13
2022-07-31T01:17:37.370Z,22.15
2022-07-31T01:20:07.856Z,22.18
2022-07-31T01:22:53.682Z,22.15
2022-07-31T01:25:34.106Z,22.10
2022-07-31T01:28:12.936Z,22.10
2022-07-31T01:30:52.973Z,22.13
2022-07-31T01:33:33.928Z,22.11
2022-07-31T01:36:09.171Z,22.22
2022-07-31T01:38:45.881Z,22.21
2022-07-31T01:41:16.846Z,22.27
2022-07-31T01:43:49.062Z,22.29
2022-07-31T01:46:21.392Z,22.38
2022-07-31T01:48:50.190Z,22.27
2022-07-31T01:51:19.803Z,22.20
2022-07-31T01:53:49.405Z,22.18
2022-07-31T01:56:18.784Z,22.14
2022-07-31T01:58:50.725Z,22.12
2022-07-31T02:01:26.655Z,22.06
2022-07-31T02:03:56.874Z,22.05
2022-07-31T02:06:28.830Z,22.09
2022-07-31T02:08:59.781Z,22.11
2022-07-31T02:11:27.530Z,22.02
2022-07-31T02:13:58.368Z,22.04
2022-07-31T02:16:28.623Z,21.99
2022-07-31T02:18:59.397Z,21.90
2022-07-31T02:21:27.417Z,21.94
2022-07-31T02:23:56.687Z,22.02
2022-07-31T02:26:28.476Z,22.03
2022-07-31T02:28:56.860Z,21.98
2022-07-31T02:31:25.477Z,21.88
2022-07-31T02:33:57.618Z,21.93
2022-07-31T02:36:25.832Z,21.96
2022-07-31T02:38:55.017Z,21.78
2022-07-31T02:41:23.626Z,21.58
2022-07-31T02:43:51.940Z,21.50
2022-07-31T02:46:21.139Z,21.57
2022-07-31T02:48:51.961Z,21.52
2022-07-31T02:51:21.310Z,21.73
2022-07-31T02:53:49.154Z,21.79
2022-07-31T02:56:17.555Z,21.67
2022-07-31T02:58:45.533Z,21.61
2022-07-31T03:01:14.410Z,21.55
2022-07-31T03:03:43.020Z,21.68
2022-07-31T03:06:10.779Z,21.46
2022-07-31T03:08:40.129Z,21.66
2022-07-31T03:11:07.883Z,21.59
2022-07-31T03:13:40.841Z,21.64
2022-07-31T03:16:11.840Z,21.50
2022-07-31T03:18:41.207Z,21.49
2022-07-31T03:21:10.815Z,21.46
2022-07-31T03:23:41.729Z,21.50
2022-07-31T03:26:10.007Z,21.84
2022-07-31T03:28:37.982Z,22.03
2022-07-31T03:31:07.784Z,21.88
2022-07-31T03:33:36.297Z,21.89
2022-07-31T03:36:04.454Z,21.88
2022-07-31T03:38:39.676Z,21.92
2022-07-31T03:41:14.444Z,21.89
2022-07-31T03:43:47.834Z,21.88
2022-07-31T03:46:17.236Z,21.71
2022-07-31T03:48:45.589Z,21.73
2022-07-31T03:51:14.090Z,21.73
2022-07-31T03:53:43.481Z,21.73
2022-07-31T03:56:13.115Z,21.68
2022-07-31T03:58:41.087Z,21.78
2022-07-31T04:01:10.630Z,21.75
2022-07-31T04:03:40.396Z,21.70
2022-07-31T04:06:09.089Z,21.63
2022-07-31T04:08:36.811Z,21.71
2022-07-31T04:11:04.675Z,21.70
2022-07-31T04:13:33.771Z,21.72
2022-07-31T04:16:04.444Z,21.56
2022-07-31T04:18:32.078Z,21.32
2022-07-31T04:20:59.923Z,21.51
2022-07-31T04:23:32.169Z,21.41
2022-07-31T04:26:03.661Z,21.52
2022-07-31T04:28:33.593Z,21.33
2022-07-31T04:31:01.253Z,21.47
2022-07-31T04:33:29.292Z,21.46
2022-07-31T04:35:58.695Z,21.65
2022-07-31T04:38:26.392Z,21.65
2022-07-31T04:40:54.172Z,21.65
2022-07-31T04:43:21.854Z,21.57
2022-07-31T04:45:50.949Z,21.47
2022-07-31T04:48:18.815Z,21.51
2022-07-31T04:50:47.006Z,21.50
2022-07-31T04:53:14.691Z,21.47
2022-07-31T04:56:03.868Z,21.43
2022-07-31T04:58:31.696Z,21.33
2022-07-31T05:01:00.788Z,21.21
2022-07-31T05:03:28.896Z,21.35
2022-07-31T05:05:56.636Z,21.41
2022-07-31T05:08:24.470Z,21.36
2022-07-31T05:11:09.866Z,21.47
2022-07-31T05:13:37.499Z,21.56
2022-07-31T05:16:12.290Z,21.51
2022-07-31T05:18:39.954Z,21.52
2022-07-31T05:21:07.715Z,21.54
2022-07-31T05:23:35.463Z,21.31
2022-07-31T05:26:05.131Z,21.27
2022-07-31T05:28:33.139Z,21.30
2022-07-31T05:31:01.008Z,21.34
2022-07-31T05:33:30.127Z,21.43
2022-07-31T05:35:58.350Z,21.45
2022-07-31T05:38:26.420Z,21.31
2022-07-31T05:40:54.524Z,21.48
2022-07-31T05:43:22.245Z,21.47
2022-07-31T05:45:50.034Z,21.57
2022-07-31T05:48:18.316Z,21.55
2022-07-31T05:50:49.005Z,21.55
2022-07-31T05:53:17.326Z,21.61
2022-07-31T05:55:47.049Z,21.61
2022-07-31T05:58:16.934Z,21.66
2022-07-31T06:00:46.051Z,21.54
2022-07-31T06:03:14.014Z,21.38
2022-07-31T06:05:41.979Z,21.41
2022-07-31T06:08:11.681Z,21.36
2022-07-31T06:10:39.460Z,21.32
2022-07-31T06:13:07.285Z,21.38
2022-07-31T06:15:36.777Z,21.41
2022-07-31T06:18:04.988Z,21.42
2022-07-31T06:20:32.867Z,21.39
2022-07-31T06:23:02.228Z,21.47
2022-07-31T06:25:49.118Z,21.51
2022-07-31T06:28:17.768Z,21.48
2022-07-31T06:30:45.441Z,21.55
2022-07-31T06:33:15.880Z,21.72
2022-07-31T06:36:00.803Z,21.77
2022-07-31T06:38:30.798Z,21.88
2022-07-31T06:40:59.829Z,21.87
2022-07-31T06:43:29.990Z,21.91
2022-07-31T06:45:57.623Z,21.89
2022-07-31T06:48:25.365Z,21.97
2022-07-31T06:51:14.433Z,22.01
2022-07-31T06:53:43.881Z,22.11
2022-07-31T06:56:13.050Z,22.10
2022-07-31T06:58:40.789Z,22.20
2022-07-31T07:01:08.501Z,22.22
2022-07-31T07:03:36.665Z,22.17
2022-07-31T07:06:04.474Z,22.17
2022-07-31T07:08:32.277Z,22.25
2022-07-31T07:11:00.030Z,22.21
2022-07-31T07:13:45.668Z,22.18
2022-07-31T07:16:14.906Z,22.18
2022-07-31T07:18:43.053Z,22.22
2022-07-31T07:21:11.054Z,22.25
2022-07-31T07:23:38.774Z,22.29
2022-07-31T07:26:07.147Z,22.32
2022-07-31T07:28:36.651Z,22.32
2022-07-31T07:31:05.688Z,22.41
2022-07-31T07:33:39.738Z,22.43
2022-07-31T07:36:23.193Z,22.49
2022-07-31T07:38:53.428Z,22.39
2022-07-31T07:41:21.550Z,22.48
2022-07-31T07:43:52.400Z,22.48
2022-07-31T07:46:24.002Z,22.46
2022-07-31T07:48:52.503Z,22.39
2022-07-31T07:51:21.010Z,22.43
2022-07-31T07:53:49.236Z,22.43
2022-07-31T07:56:17.657Z,22.48
2022-07-31T07:58:45.546Z,22.66
2022-07-31T08:01:15.143Z,22.67
2022-07-31T08:03:50.949Z,22.70
2022-07-31T08:06:23.415Z,22.70
2022-07-31T08:08:51.398Z,22.71
2022-07-31T08:11:19.410Z,22.81
2022-07-31T08:13:51.016Z,22.81
2022-07-31T08:16:20.965Z,22.81
2022-07-31T08:18:48.882Z,22.77
2022-07-31T08:21:16.853Z,22.71
2022-07-31T08:23:44.626Z,22.72
2022-07-31T08:26:13.948Z,22.66
2022-07-31T08:28:50.175Z,22.73
2022-07-31T08:31:20.637Z,22.81
2022-07-31T08:33:48.486Z,22.82
2022-07-31T08:36:17.535Z,22.84
2022-07-31T08:38:45.690Z,22.85
2022-07-31T08:41:20.107Z,22.87
2022-07-31T08:44:01.607Z,22.89
2022-07-31T08:46:34.100Z,22.85
2022-07-31T08:49:05.835Z,22.88
2022-07-31T08:51:50.948Z,22.99
2022-07-31T08:54:20.470Z,23.04
2022-07-31T08:56:52.433Z,23.11
2022-07-31T08:59:20.891Z,23.16
2022-07-31T09:01:54.051Z,23.29
2022-07-31T09:04:23.486Z,23.23
2022-07-31T09:06:51.685Z,23.26
2022-07-31T09:09:20.850Z,23.37
2022-07-31T09:11:49.609Z,23.40
2022-07-31T09:14:29.737Z,23.42
2022-07-31T09:16:59.375Z,23.48
2022-07-31T09:19:53.513Z,23.57
2022-07-31T09:22:28.712Z,23.59
2022-07-31T09:25:08.707Z,23.70
2022-07-31T09:27:44.297Z,23.67
2022-07-31T09:30:13.016Z,23.73
2022-07-31T09:32:43.224Z,23.84
2022-07-31T09:35:12.794Z,23.92
2022-07-31T09:37:41.374Z,23.88
2022-07-31T09:40:10.385Z,23.96
2022-07-31T09:42:45.566Z,23.97
2022-07-31T09:45:21.919Z,24.00
2022-07-31T09:48:04.631Z,23.84
2022-07-31T09:50:32.365Z,24.11
2022-07-31T09:53:01.646Z,24.23
2022-07-31T09:55:30.090Z,24.18
2022-07-31T09:57:59.568Z,24.31
2022-07-31T10:00:28.740Z,24.37
2022-07-31T10:02:58.697Z,24.41
2022-07-31T10:05:28.202Z,24.45
2022-07-31T10:08:00.039Z,24.37
2022-07-31T10:10:41.990Z,24.44
2022-07-31T10:13:22.450Z,24.44
2022-07-31T10:15:57.993Z,24.44
2022-07-31T10:18:36.049Z,24.46
2022-07-31T10:21:08.592Z,24.50
2022-07-31T10:23:49.220Z,24.47
2022-07-31T10:26:17.486Z,24.47
2022-07-31T10:28:45.301Z,24.32
2022-07-31T10:31:13.613Z,24.22
2022-07-31T10:33:45.059Z,24.44
2022-07-31T10:36:17.833Z,24.38
2022-07-31T10:38:59.732Z,24.67
2022-07-31T10:41:38.957Z,24.71
2022-07-31T10:44:12.600Z,24.86
2022-07-31T10:46:40.826Z,24.63
2022-07-31T10:49:09.923Z,24.84
2022-07-31T10:51:47.561Z,24.74
2022-07-31T10:54:15.677Z,24.84
2022-07-31T10:56:47.522Z,24.80
2022-07-31T10:59:15.401Z,24.89
2022-07-31T11:01:53.072Z,25.10
2022-07-31T11:04:29.116Z,25.08
2022-07-31T11:06:56.999Z,25.08
2022-07-31T11:09:25.599Z,25.11
2022-07-31T11:11:54.016Z,25.20
2022-07-31T11:14:32.857Z,25.37
2022-07-31T11:17:00.522Z,25.49
2022-07-31T11:19:41.250Z,25.58
2022-07-31T11:22:32.246Z,25.62
2022-07-31T11:25:00.907Z,25.59
2022-07-31T11:27:32.751Z,25.54
2022-07-31T11:30:10.648Z,25.50
2022-07-31T11:32:40.630Z,25.41
2022-07-31T11:35:10.145Z,25.50
2022-07-31T11:37:56.295Z,25.47
2022-07-31T11:40:27.592Z,25.49
2022-07-31T11:43:27.209Z,25.54
2022-07-31T11:45:48.915Z,25.72
2022-07-31T11:48:19.190Z,25.67
2022-07-31T11:50:50.102Z,25.71
2022-07-31T11:53:18.604Z,25.78
2022-07-31T11:55:54.186Z,25.74
2022-07-31T11:58:23.382Z,25.71
2022-07-31T12:00:52.748Z,25.61
2022-07-31T12:03:22.875Z,25.57
2022-07-31T12:05:53.332Z,25.53
2022-07-31T12:08:21.747Z,25.71
2022-07-31T12:10:49.898Z,25.92
2022-07-31T12:13:19.134Z,25.92
2022-07-31T12:16:00.416Z,25.84
2022-07-31T12:18:29.723Z,25.80
2022-07-31T12:21:00.305Z,25.70
2022-07-31T12:23:41.468Z,25.67
2022-07-31T12:26:13.329Z,25.69
2022-07-31T12:28:41.196Z,25.93
2022-07-31T12:31:09.134Z,26.13
2022-07-31T12:33:45.598Z,26.24
2022-07-31T12:36:16.631Z,26.24
2022-07-31T12:38:48.498Z,26.17
2022-07-31T12:41:17.554Z,26.22
2022-07-31T12:43:51.168Z,26.29
2022-07-31T12:46:35.292Z,26.34
2022-07-31T12:49:03.026Z,26.06
2022-07-31T12:51:45.371Z,25.98
2022-07-31T12:54:15.751Z,26.20
2022-07-31T12:56:43.638Z,26.17
2022-07-31T12:59:12.142Z,26.33
2022-07-31T13:01:40.505Z,26.41
2022-07-31T13:04:18.840Z,26.43
2022-07-31T13:06:52.146Z,26.60
2022-07-31T13:09:20.127Z,26.60
2022-07-31T13:11:48.457Z,26.71
2022-07-31T13:14:16.841Z,26.74
2022-07-31T13:16:44.582Z,26.72
2022-07-31T13:19:12.904Z,26.74
2022-07-31T13:21:49.463Z,26.65
2022-07-31T13:24:20.191Z,26.72
2022-07-31T13:26:48.445Z,26.53
2022-07-31T13:29:16.669Z,26.40
2022-07-31T13:31:44.759Z,26.42
2022-07-31T13:34:12.801Z,26.57
2022-07-31T13:36:45.386Z,26.62
2022-07-31T13:39:29.007Z,26.62
2022-07-31T13:41:58.297Z,26.68
2022-07-31T13:44:39.444Z,26.70
2022-07-31T13:47:07.637Z,26.77
2022-07-31T13:49:37.581Z,26.68
2022-07-31T13:52:06.241Z,26.64
2022-07-31T13:54:35.576Z,26.60
2022-07-31T13:57:06.014Z,26.48
2022-07-31T13:59:34.103Z,26.54
2022-07-31T14:02:04.696Z,26.65
2022-07-31T14:04:38.208Z,26.99
2022-07-31T14:07:07.528Z,26.97
2022-07-31T14:09:36.039Z,26.97
2022-07-31T14:12:06.107Z,27.10
2022-07-31T14:14:37.212Z,27.10
2022-07-31T14:17:04.856Z,27.05
2022-07-31T14:19:43.778Z,27.24
2022-07-31T14:22:13.404Z,27.38
2022-07-31T14:24:41.373Z,27.46
2022-07-31T14:27:12.383Z,27.58
2022-07-31T14:29:40.082Z,27.65
2022-07-31T14:32:08.610Z,27.60
2022-07-31T14:34:36.503Z,27.61
2022-07-31T14:37:04.678Z,27.62
2022-07-31T14:39:32.718Z,27.55
2022-07-31T14:42:00.435Z,27.46
2022-07-31T14:44:29.418Z,27.41
2022-07-31T14:46:57.111Z,27.37
2022-07-31T14:49:24.964Z,27.54
2022-07-31T14:52:12.606Z,27.99
2022-07-31T14:54:40.544Z,28.15
2022-07-31T14:57:08.278Z,28.42
2022-07-31T14:59:37.333Z,28.75
2022-07-31T15:02:05.949Z,28.91
2022-07-31T15:04:34.237Z,28.89
2022-07-31T15:07:33.276Z,28.81
2022-07-31T15:09:49.893Z,28.73
2022-07-31T15:12:19.299Z,28.72
2022-07-31T15:14:48.391Z,28.67
2022-07-31T15:17:16.190Z,28.69
2022-07-31T15:19:43.968Z,28.78
2022-07-31T15:22:17.142Z,28.92
2022-07-31T15:24:48.354Z,28.78
2022-07-31T15:27:17.169Z,28.58
2022-07-31T15:30:05.484Z,28.36
2022-07-31T15:32:33.987Z,28.28
2022-07-31T15:35:01.858Z,28.35
2022-07-31T15:37:30.132Z,28.74
2022-07-31T15:40:01.904Z,28.96
2022-07-31T15:42:30.951Z,29.14
2022-07-31T15:44:58.687Z,29.24
2022-07-31T15:47:26.502Z,29.70
2022-07-31T15:49:55.684Z,29.79
2022-07-31T15:52:23.540Z,29.88
2022-07-31T15:54:52.566Z,30.08
2022-07-31T15:57:20.873Z,30.15
2022-07-31T15:59:49.111Z,29.97
2022-07-31T16:02:17.323Z,29.53
2022-07-31T16:04:53.317Z,29.37
2022-07-31T16:08:30.767Z,29.23
2022-07-31T16:10:16.519Z,29.02
2022-07-31T16:12:46.294Z,28.85
2022-07-31T16:15:14.925Z,28.84
2022-07-31T16:17:44.116Z,28.80
2022-07-31T16:20:25.452Z,28.78
2022-07-31T16:22:57.963Z,28.76
2022-07-31T16:25:26.477Z,28.51
2022-07-31T16:27:54.291Z,28.40
2022-07-31T16:30:22.815Z,28.40
2022-07-31T16:32:51.495Z,28.31
2022-07-31T16:35:19.393Z,28.06
2022-07-31T16:37:50.903Z,27.97
2022-07-31T16:40:29.150Z,27.91
2022-07-31T16:43:01.748Z,28.02
2022-07-31T16:45:30.760Z,28.12
2022-07-31T16:47:58.752Z,28.05
2022-07-31T16:50:26.924Z,28.18
2022-07-31T16:52:55.360Z,28.17
2022-07-31T16:55:55.419Z,28.25
2022-07-31T16:58:15.158Z,28.45
2022-07-31T17:00:43.853Z,28.28
2022-07-31T17:03:59.007Z,28.39
2022-07-31T17:06:00.043Z,28.30
2022-07-31T17:08:30.075Z,28.40
2022-07-31T17:10:59.216Z,28.50
2022-07-31T17:13:27.265Z,28.44
2022-07-31T17:15:55.140Z,28.25
2022-07-31T17:18:25.462Z,28.16
2022-07-31T17:20:56.019Z,28.05
2022-07-31T17:23:43.629Z,28.00
2022-07-31T17:26:22.276Z,27.92
2022-07-31T17:28:51.009Z,27.67
2022-07-31T17:31:30.314Z,27.57
2022-07-31T17:34:01.378Z,27.54
2022-07-31T17:36:31.457Z,27.45
2022-07-31T17:39:07.781Z,27.36
2022-07-31T17:41:41.029Z,27.31
2022-07-31T17:44:08.986Z,27.35
2022-07-31T17:46:48.285Z,27.30
2022-07-31T17:49:20.461Z,27.37
2022-07-31T17:52:05.268Z,27.32
2022-07-31T17:54:40.268Z,27.37
2022-07-31T17:57:36.563Z,27.28
2022-07-31T18:00:07.930Z,27.31
2022-07-31T18:02:35.901Z,27.34
2022-07-31T18:05:03.898Z,27.31
2022-07-31T18:07:31.764Z,27.23
2022-07-31T18:09:59.653Z,27.22
2022-07-31T18:12:27.618Z,27.19
2022-07-31T18:14:56.651Z,27.19
2022-07-31T18:17:24.396Z,27.10
2022-07-31T18:19:52.204Z,27.04
2022-07-31T18:22:19.945Z,27.01
2022-07-31T18:24:47.706Z,27.07
2022-07-31T18:27:15.927Z,27.07
2022-07-31T18:29:47.340Z,27.07
2022-07-31T18:32:25.848Z,27.04
2022-07-31T18:34:53.593Z,27.04
2022-07-31T18:37:21.342Z,27.05
2022-07-31T18:39:50.518Z,27.03
2022-07-31T18:42:18.481Z,27.04
2022-07-31T18:44:46.610Z,26.98
2022-07-31T18:47:14.450Z,26.99
2022-07-31T18:50:59.214Z,26.92
2022-07-31T18:52:31.378Z,26.93
2022-07-31T18:54:59.161Z,26.93
2022-07-31T18:57:26.930Z,26.87
2022-07-31T18:59:54.613Z,26.86
2022-07-31T19:02:24.213Z,26.78
2022-07-31T19:04:56.710Z,26.63
2022-07-31T19:07:25.636Z,26.76
2022-07-31T19:09:53.328Z,26.87
2022-07-31T19:12:21.168Z,26.86
2022-07-31T19:18:36.610Z,26.73
2022-07-31T19:21:19.388Z,26.77
2022-07-31T19:23:54.325Z,26.75
2022-07-31T19:26:22.252Z,26.69
2022-07-31T19:28:50.087Z,26.75
2022-07-31T19:31:18.302Z,26.75
2022-07-31T19:33:46.513Z,26.75
2022-07-31T19:36:16.340Z,26.74
2022-07-31T19:38:55.702Z,26.68
2022-07-31T19:41:24.936Z,26.63
2022-07-31T19:43:52.832Z,26.67
2022-07-31T19:46:23.693Z,26.56
2022-07-31T19:48:51.619Z,26.55
2022-07-31T19:51:20.905Z,26.58
2022-07-31T19:53:55.111Z,26.64
2022-07-31T19:56:22.841Z,26.62
2022-07-31T19:58:51.399Z,26.57
2022-07-31T20:01:21.955Z,26.52
2022-07-31T20:03:50.162Z,26.42
2022-07-31T20:06:20.276Z,26.43
2022-07-31T20:08:50.187Z,26.42
2022-07-31T20:11:18.252Z,26.40
2022-07-31T20:13:46.075Z,26.35
2022-07-31T20:16:15.173Z,26.50
2022-07-31T20:19:09.809Z,26.55
2022-07-31T20:21:44.005Z,26.50
2022-07-31T20:24:13.231Z,26.44
2022-07-31T20:49:19.325Z,26.15
2022-07-31T20:52:24.055Z,26.06
2022-07-31T20:55:19.584Z,25.96
2022-07-31T20:57:48.688Z,25.95
2022-07-31T21:00:17.021Z,25.94
2022-07-31T21:02:46.490Z,25.92
2022-07-31T21:05:26.908Z,25.91
2022-07-31T21:08:01.393Z,25.87
2022-07-31T21:10:30.216Z,25.84
2022-07-31T21:12:59.569Z,25.86
2022-07-31T21:15:41.752Z,25.87
2022-07-31T21:18:12.881Z,25.88
2022-07-31T21:20:49.827Z,25.90
2022-07-31T21:23:25.276Z,25.85
2022-07-31T21:25:54.397Z,25.83
2022-07-31T21:28:24.730Z,25.84
2022-07-31T21:30:53.770Z,25.85
2022-07-31T21:34:15.715Z,25.81
2022-07-31T22:00:33.339Z,25.39
2022-07-31T22:03:04.028Z,25.36
2022-07-31T22:05:55.578Z,25.36
2022-07-31T22:08:23.430Z,25.36
2022-07-31T22:10:52.778Z,25.38
2022-07-31T22:13:23.136Z,25.33
2022-07-31T22:15:58.601Z,25.37
2022-07-31T22:18:29.122Z,25.37
2022-07-31T22:20:57.501Z,25.35
2022-07-31T22:23:25.526Z,25.37
2022-07-31T22:26:02.667Z,25.36
2022-07-31T22:28:30.836Z,25.31
2022-07-31T22:31:03.788Z,25.30
2022-07-31T22:33:31.809Z,25.28
2022-07-31T22:36:02.689Z,25.34
2022-07-31T22:38:31.614Z,25.34
2022-07-31T22:41:00.144Z,25.28
2022-07-31T22:44:10.352Z,25.30
2022-07-31T22:46:17.370Z,25.19
2022-07-31T22:48:48.180Z,25.34
2022-07-31T22:51:16.213Z,25.37
2022-07-31T22:53:44.449Z,25.35
2022-07-31T22:56:16.807Z,25.31
2022-07-31T22:58:44.633Z,25.28
2022-07-31T23:01:12.666Z,25.24
2022-07-31T23:03:41.813Z,25.23
2022-07-31T23:06:31.249Z,25.20
2022-07-31T23:08:57.697Z,25.17
2022-07-31T23:11:25.681Z,25.14
2022-07-31T23:13:54.025Z,25.17
2022-07-31T23:16:21.846Z,25.21
2022-07-31T23:18:51.518Z,25.25
2022-07-31T23:21:22.902Z,25.22
2022-07-31T23:23:51.848Z,25.16
2022-07-31T23:26:20.148Z,25.16
2022-07-31T23:28:48.065Z,25.13
2022-07-31T23:31:19.199Z,25.07
2022-07-31T23:33:48.100Z,24.99
2022-07-31T23:36:17.907Z,24.96
2022-07-31T23:38:49.655Z,24.91
2022-07-31T23:41:38.225Z,24.96
2022-07-31T23:44:05.517Z,24.98
2022-07-31T23:46:38.937Z,24.93
2022-07-31T23:49:08.880Z,24.85
2022-07-31T23:51:38.296Z,24.87
2022-07-31T23:54:06.263Z,24.82
2022-07-31T23:56:36.633Z,24.84
2022-07-31T23:59:04.702Z,24.76
